Time;durP1;ratioP1;P1;durP2;ratioP2;P2;SDS_P1;SDS_P2;PMS_P1;PMS_P2;Temp;Humidity;BMP_temperature;BMP_pressure;BME280_temperature;BME280_humidity;BME280_pressure;Samples;Min_cycle;Max_cycle;Signal;HPM_P1;HPM_P2
2022/10/26 00:01:04;;;;;;;8.23;6.65;;;9.70;99.90;;;;;;4983042;28;20066;-48
2022/10/26 00:03:30;;;;;;;9.48;6.82;;;9.70;99.90;;;;;;4999425;28;20370;-48
2022/10/26 00:06:04;;;;;;;9.63;5.75;;;9.70;99.90;;;;;;4985154;28;20032;-49
2022/10/26 00:08:30;;;;;;;9.77;6.90;;;9.60;99.90;;;;;;4982141;28;20030;-48
2022/10/26 00:10:57;;;;;;;8.10;6.18;;;9.60;99.90;;;;;;4985422;28;20030;-48
2022/10/26 00:13:22;;;;;;;10.00;7.20;;;9.60;99.90;;;;;;4981777;28;20117;-47
2022/10/26 00:15:48;;;;;;;8.38;6.35;;;9.60;99.90;;;;;;4977696;28;20205;-49
2022/10/26 00:18:14;;;;;;;9.40;6.97;;;9.50;99.90;;;;;;4981782;28;20421;-47
2022/10/26 00:20:39;;;;;;;11.15;6.47;;;9.50;99.90;;;;;;4986099;28;20022;-50
2022/10/26 00:23:05;;;;;;;7.60;6.72;;;9.50;99.90;;;;;;4985816;28;20033;-51
2022/10/26 00:25:30;;;;;;;7.65;6.82;;;9.50;99.90;;;;;;4979456;28;20022;-51
2022/10/26 00:27:56;;;;;;;9.65;7.03;;;9.50;99.90;;;;;;4984562;28;20481;-48
2022/10/26 00:30:22;;;;;;;8.27;6.53;;;9.40;99.90;;;;;;4976129;28;20030;-52
2022/10/26 00:32:47;;;;;;;7.90;5.47;;;9.40;99.90;;;;;;4976741;28;20201;-49
2022/10/26 00:35:13;;;;;;;9.65;6.10;;;9.40;99.90;;;;;;4982056;28;20022;-50
2022/10/26 00:37:38;;;;;;;9.25;6.35;;;9.40;99.90;;;;;;4977501;28;20086;-49
2022/10/26 00:40:04;;;;;;;9.77;5.95;;;9.40;99.90;;;;;;4974784;28;20049;-49
2022/10/26 00:42:30;;;;;;;7.50;5.65;;;9.30;99.90;;;;;;4979790;28;20037;-53
2022/10/26 00:44:59;;;;;;;8.43;6.57;;;9.30;99.90;;;;;;4975451;28;20035;-50
2022/10/26 00:47:42;;;;;;;9.60;6.78;;;9.30;99.90;;;;;;4979340;28;20027;-49
2022/10/26 00:50:32;;;;;;;9.07;6.22;;;9.30;99.90;;;;;;4984624;28;20035;-49
2022/10/26 00:53:02;;;;;;;7.50;6.22;;;9.20;99.90;;;;;;4980568;28;20662;-48
2022/10/26 00:55:32;;;;;;;13.05;6.60;;;9.30;99.90;;;;;;4976730;28;20034;-48
2022/10/26 00:57:59;;;;;;;8.32;6.78;;;9.30;99.90;;;;;;4974233;28;20031;-50
2022/10/26 01:00:25;;;;;;;8.88;6.93;;;9.30;99.90;;;;;;4982075;28;20030;-48
2022/10/26 01:02:53;;;;;;;10.20;6.40;;;9.30;99.90;;;;;;4979765;28;20029;-53
2022/10/26 01:05:20;;;;;;;8.68;6.38;;;9.30;99.90;;;;;;4982679;28;20388;-48
2022/10/26 01:07:46;;;;;;;10.00;6.50;;;9.30;99.90;;;;;;4980452;28;20022;-48
2022/10/26 01:10:12;;;;;;;12.20;7.13;;;9.30;99.90;;;;;;4983590;28;20120;-50
2022/10/26 01:12:41;;;;;;;8.38;6.65;;;9.30;99.90;;;;;;4980264;28;20037;-48
2022/10/26 01:15:07;;;;;;;8.82;6.13;;;9.40;99.90;;;;;;4977971;28;20121;-48
2022/10/26 01:18:00;;;;;;;8.30;7.05;;;9.40;99.90;;;;;;4985593;28;20492;-48
2022/10/26 01:20:44;;;;;;;9.73;6.85;;;9.40;99.90;;;;;;4980907;28;20026;-51
2022/10/26 01:23:29;;;;;;;7.75;6.30;;;9.40;99.90;;;;;;4984401;28;20417;-47
2022/10/26 01:26:51;;;;;;;12.18;6.55;;;9.30;99.90;;;;;;4988062;28;20291;-50
2022/10/26 01:29:35;;;;;;;12.80;6.43;;;9.30;99.90;;;;;;4907580;29;20023;-49
2022/10/26 01:32:13;;;;;;;9.13;6.63;;;9.30;99.90;;;;;;4906434;29;20272;-47
2022/10/26 01:35:04;;;;;;;8.30;6.82;;;9.30;99.90;;;;;;4966938;28;20044;-48
2022/10/26 01:37:36;;;;;;;8.85;6.72;;;9.30;99.90;;;;;;4962952;28;20035;-49
2022/10/26 01:40:10;;;;;;;9.95;6.47;;;9.30;99.90;;;;;;4981063;28;20026;-49
2022/10/26 01:42:39;;;;;;;9.50;7.05;;;9.30;99.90;;;;;;4981893;28;20120;-51
2022/10/26 01:45:08;;;;;;;14.07;7.10;;;9.30;99.90;;;;;;4981948;28;20031;-48
2022/10/26 01:47:36;;;;;;;12.55;7.00;;;9.30;99.90;;;;;;4973225;28;20031;-50
2022/10/26 01:50:04;;;;;;;9.75;7.05;;;9.30;99.90;;;;;;4973561;28;20066;-49
2022/10/26 01:52:30;;;;;;;9.23;6.82;;;9.30;99.90;;;;;;5008091;23;20026;-49
2022/10/26 01:55:23;;;;;;;11.80;7.05;;;9.30;99.90;;;;;;5016493;28;20420;-49
2022/10/26 01:57:51;;;;;;;11.25;7.13;;;9.30;99.90;;;;;;4995752;28;20463;-53
2022/10/26 02:00:17;;;;;;;12.43;6.40;;;9.30;99.90;;;;;;5012323;28;20025;-49
2022/10/26 02:03:06;;;;;;;10.75;6.88;;;9.30;99.90;;;;;;5014421;28;20032;-53
2022/10/26 02:05:39;;;;;;;9.00;6.85;;;9.20;99.90;;;;;;5015771;28;20025;-49
2022/10/26 02:08:14;;;;;;;10.40;6.72;;;9.20;99.90;;;;;;5012345;28;20476;-50
2022/10/26 02:11:00;;;;;;;9.05;6.55;;;9.20;99.90;;;;;;5016772;28;20065;-49
2022/10/26 02:13:45;;;;;;;7.70;6.75;;;9.20;99.90;;;;;;5011102;28;20029;-50
2022/10/26 02:16:31;;;;;;;10.57;6.60;;;9.20;99.90;;;;;;5022683;28;20156;-50
2022/10/26 02:18:59;;;;;;;9.40;6.93;;;9.10;99.90;;;;;;5016237;28;20548;-49
2022/10/26 02:21:30;;;;;;;13.60;7.07;;;9.10;99.90;;;;;;5019966;28;20022;-50
2022/10/26 02:23:58;;;;;;;12.18;7.63;;;9.10;99.90;;;;;;5017391;28;20072;-50
2022/10/26 02:26:27;;;;;;;11.45;7.20;;;9.10;99.90;;;;;;5017216;28;20022;-51
2022/10/26 02:28:57;;;;;;;14.68;6.43;;;9.10;99.90;;;;;;5014941;28;20435;-55
2022/10/26 02:31:24;;;;;;;11.50;7.75;;;9.00;99.90;;;;;;5019977;28;20029;-49
2022/10/26 02:33:51;;;;;;;11.48;7.03;;;9.00;99.90;;;;;;5017559;28;20062;-50
2022/10/26 02:36:24;;;;;;;10.68;6.95;;;9.00;99.90;;;;;;5020987;28;20029;-52
2022/10/26 02:38:51;;;;;;;9.00;6.72;;;8.90;99.90;;;;;;5012397;28;20026;-54
2022/10/26 02:41:20;;;;;;;14.40;7.78;;;8.90;99.90;;;;;;5019281;28;20253;-51
2022/10/26 02:43:56;;;;;;;8.60;6.55;;;8.90;99.90;;;;;;5021414;28;20479;-52
2022/10/26 02:46:26;;;;;;;10.10;7.43;;;8.80;99.90;;;;;;5015254;28;20030;-52
2022/10/26 02:48:51;;;;;;;11.10;6.80;;;8.80;99.90;;;;;;5019432;28;20041;-49
2022/10/26 02:51:44;;;;;;;10.00;6.38;;;8.80;99.90;;;;;;5019086;28;20033;-49
2022/10/26 02:54:13;;;;;;;9.73;6.95;;;8.80;99.90;;;;;;5016718;28;20049;-50
2022/10/26 02:56:53;;;;;;;7.00;6.30;;;8.70;99.90;;;;;;5009996;28;20111;-49
2022/10/26 02:59:22;;;;;;;9.05;6.50;;;8.70;99.90;;;;;;5011792;28;20036;-50
2022/10/26 03:01:50;;;;;;;9.50;6.80;;;8.70;99.90;;;;;;5009034;28;20133;-49
2022/10/26 03:04:15;;;;;;;11.23;6.97;;;8.70;99.90;;;;;;5018107;28;20526;-51
2022/10/26 03:06:41;;;;;;;11.05;6.97;;;8.70;99.90;;;;;;5017018;28;20029;-49
2022/10/26 03:09:06;;;;;;;9.05;6.88;;;8.70;99.90;;;;;;5018615;28;20040;-55
2022/10/26 03:11:32;;;;;;;11.07;6.70;;;8.70;99.90;;;;;;5022473;28;20028;-49
2022/10/26 03:13:57;;;;;;;9.45;6.93;;;8.70;99.90;;;;;;5018871;28;20034;-51
2022/10/26 03:16:23;;;;;;;9.25;6.57;;;8.70;99.90;;;;;;5009227;28;20030;-50
2022/10/26 03:18:48;;;;;;;8.50;5.50;;;8.70;99.90;;;;;;5026349;28;20022;-52
2022/10/26 03:21:14;;;;;;;10.95;6.97;;;8.60;99.90;;;;;;5015766;28;20025;-49
2022/10/26 03:23:40;;;;;;;14.60;8.50;;;8.70;99.90;;;;;;5026273;28;20029;-49
2022/10/26 03:26:06;;;;;;;10.85;6.93;;;8.60;99.90;;;;;;5021561;28;20053;-51
2022/10/26 03:28:31;;;;;;;10.60;6.50;;;8.60;99.90;;;;;;5019706;28;20058;-50
2022/10/26 03:30:57;;;;;;;11.18;7.10;;;8.60;99.90;;;;;;5022515;28;20085;-51
2022/10/26 03:33:22;;;;;;;11.57;6.85;;;8.60;99.90;;;;;;5016287;28;20033;-50
2022/10/26 03:35:54;;;;;;;16.05;7.70;;;8.60;99.90;;;;;;5018717;28;20042;-51
2022/10/26 03:38:20;;;;;;;11.63;7.32;;;8.60;99.90;;;;;;5019086;28;20025;-50
2022/10/26 03:40:47;;;;;;;12.70;7.47;;;8.60;99.90;;;;;;5028360;28;20052;-52
2022/10/26 03:43:13;;;;;;;9.77;7.10;;;8.60;99.90;;;;;;5013177;28;20108;-52
2022/10/26 03:45:38;;;;;;;10.43;6.65;;;8.60;99.90;;;;;;5018210;28;20129;-53
2022/10/26 03:48:04;;;;;;;9.40;6.72;;;8.60;99.90;;;;;;5026289;28;20021;-54
2022/10/26 03:50:29;;;;;;;11.10;6.82;;;8.50;99.90;;;;;;5019385;28;20037;-55
2022/10/26 03:52:55;;;;;;;14.52;7.40;;;8.50;99.90;;;;;;5024386;28;20037;-50
2022/10/26 03:55:21;;;;;;;13.30;7.72;;;8.50;99.90;;;;;;5014582;28;20026;-49
2022/10/26 03:57:46;;;;;;;9.30;6.43;;;8.50;99.90;;;;;;5025206;28;20484;-51
2022/10/26 04:00:14;;;;;;;12.77;6.78;;;8.40;99.90;;;;;;5015179;28;20453;-54
2022/10/26 04:02:41;;;;;;;11.73;7.65;;;8.40;99.90;;;;;;5018666;28;20026;-49
2022/10/26 04:05:07;;;;;;;10.48;7.35;;;8.40;99.90;;;;;;5012866;28;20027;-50
2022/10/26 04:07:33;;;;;;;9.88;7.40;;;8.40;99.90;;;;;;5020995;28;20413;-51
2022/10/26 04:09:58;;;;;;;12.65;6.95;;;8.40;99.90;;;;;;5020368;28;20037;-53
2022/10/26 04:12:24;;;;;;;9.95;6.68;;;8.40;99.90;;;;;;5023231;28;20056;-51
2022/10/26 04:14:50;;;;;;;10.73;6.70;;;8.40;99.90;;;;;;5019422;28;20026;-51
2022/10/26 04:17:16;;;;;;;9.90;6.75;;;8.40;99.90;;;;;;5017121;28;20067;-50
2022/10/26 04:19:41;;;;;;;12.48;7.43;;;8.30;99.90;;;;;;5020056;28;20038;-50
2022/10/26 04:22:07;;;;;;;13.02;7.50;;;8.30;99.90;;;;;;5014209;28;20135;-50
2022/10/26 04:24:32;;;;;;;11.85;7.55;;;8.30;99.90;;;;;;5022246;28;20022;-50
2022/10/26 04:26:58;;;;;;;10.40;7.65;;;8.30;99.90;;;;;;5018819;28;20454;-53
2022/10/26 04:29:23;;;;;;;11.27;8.00;;;8.30;99.90;;;;;;5018562;28;20030;-50
2022/10/26 04:31:49;;;;;;;11.48;7.97;;;8.30;99.90;;;;;;5011562;28;20485;-53
2022/10/26 04:34:14;;;;;;;11.57;7.85;;;8.30;99.90;;;;;;5025786;28;20024;-53
2022/10/26 04:36:40;;;;;;;15.48;8.20;;;8.40;99.90;;;;;;5016297;28;20029;-50
2022/10/26 04:39:05;;;;;;;13.45;8.93;;;8.40;99.90;;;;;;5022978;28;20104;-51
2022/10/26 04:41:31;;;;;;;12.27;8.18;;;8.40;99.90;;;;;;5017814;28;20120;-52
2022/10/26 04:43:57;;;;;;;12.57;8.38;;;8.40;99.90;;;;;;5020320;28;20062;-50
2022/10/26 04:46:22;;;;;;;14.38;8.77;;;8.40;99.90;;;;;;5016153;28;20156;-51
2022/10/26 04:48:48;;;;;;;11.55;8.93;;;8.40;99.90;;;;;;5015379;28;20029;-51
2022/10/26 04:51:13;;;;;;;16.92;9.18;;;8.40;99.90;;;;;;5022743;28;20030;-53
2022/10/26 04:53:39;;;;;;;15.95;8.73;;;8.40;99.90;;;;;;5017993;28;20440;-52
2022/10/26 04:56:04;;;;;;;12.05;8.65;;;8.40;99.90;;;;;;5023157;28;20064;-49
2022/10/26 04:58:30;;;;;;;13.65;8.52;;;8.40;99.90;;;;;;5010236;28;20053;-49
2022/10/26 05:00:56;;;;;;;14.45;8.93;;;8.40;99.90;;;;;;5019449;28;20523;-54
2022/10/26 05:03:22;;;;;;;12.48;9.75;;;8.40;99.90;;;;;;5017286;28;20018;-51
2022/10/26 05:05:47;;;;;;;11.80;8.48;;;8.40;99.90;;;;;;5017074;28;20364;-51
2022/10/26 05:08:14;;;;;;;10.85;8.40;;;8.40;99.90;;;;;;5023683;28;20101;-50
2022/10/26 05:10:40;;;;;;;14.63;9.02;;;8.40;99.90;;;;;;5017646;28;20032;-50
2022/10/26 05:13:05;;;;;;;12.27;9.07;;;8.40;99.90;;;;;;5019449;28;20041;-50
2022/10/26 05:15:31;;;;;;;13.48;9.50;;;8.30;99.90;;;;;;5016730;28;20034;-52
2022/10/26 05:17:59;;;;;;;14.68;9.05;;;8.30;99.90;;;;;;5020448;28;20053;-51
2022/10/26 05:20:29;;;;;;;12.75;8.77;;;8.30;99.90;;;;;;5018922;28;20112;-52
2022/10/26 05:23:01;;;;;;;15.65;8.98;;;8.30;99.90;;;;;;5020352;28;20480;-50
2022/10/26 05:25:29;;;;;;;14.10;8.40;;;8.30;99.90;;;;;;5021734;28;20415;-52
2022/10/26 05:28:08;;;;;;;18.10;9.23;;;8.30;99.90;;;;;;5017485;28;20104;-51
2022/10/26 05:30:34;;;;;;;12.65;8.85;;;8.30;99.90;;;;;;5021875;28;20026;-49
2022/10/26 05:33:03;;;;;;;15.85;8.52;;;8.30;99.90;;;;;;5018957;28;20084;-53
2022/10/26 05:35:29;;;;;;;12.15;8.43;;;8.30;99.90;;;;;;5019444;28;20074;-54
2022/10/26 05:37:55;;;;;;;13.38;9.30;;;8.30;99.90;;;;;;5020263;28;20708;-52
2022/10/26 05:40:21;;;;;;;14.98;8.93;;;8.30;99.90;;;;;;5020853;28;20105;-52
2022/10/26 05:42:47;;;;;;;14.93;10.25;;;8.30;99.90;;;;;;5020612;28;20025;-53
2022/10/26 05:45:12;;;;;;;12.43;8.55;;;8.30;99.90;;;;;;5017744;28;20021;-50
2022/10/26 05:47:43;;;;;;;14.13;9.20;;;8.30;99.90;;;;;;5014447;28;20026;-51
2022/10/26 05:50:10;;;;;;;15.23;9.80;;;8.20;99.90;;;;;;5021577;28;20492;-50
2022/10/26 05:52:43;;;;;;;16.85;10.18;;;8.30;99.90;;;;;;5020480;28;20029;-53
2022/10/26 05:55:11;;;;;;;16.27;10.40;;;8.30;99.90;;;;;;5015487;28;20037;-51
2022/10/26 05:57:38;;;;;;;16.75;10.20;;;8.20;99.90;;;;;;5031099;28;20041;-49
2022/10/26 06:00:07;;;;;;;16.65;10.15;;;8.30;99.90;;;;;;5011751;28;20030;-54
2022/10/26 06:02:51;;;;;;;14.38;10.40;;;8.30;99.90;;;;;;5015848;28;20083;-51
2022/10/26 06:05:29;;;;;;;16.77;10.73;;;8.20;99.90;;;;;;5016876;28;20105;-51
2022/10/26 06:07:55;;;;;;;15.65;10.40;;;8.20;99.90;;;;;;5022110;28;20049;-50
2022/10/26 06:10:21;;;;;;;20.75;10.30;;;8.20;99.90;;;;;;5017764;28;20069;-50
2022/10/26 06:12:46;;;;;;;13.90;10.27;;;8.20;99.90;;;;;;5012122;28;20030;-50
2022/10/26 06:15:18;;;;;;;16.73;10.98;;;8.20;99.90;;;;;;5018559;28;20041;-53
2022/10/26 06:18:12;;;;;;;14.07;9.98;;;8.20;99.90;;;;;;5018285;28;20116;-49
2022/10/26 06:20:59;;;;;;;20.67;11.05;;;8.20;99.90;;;;;;5014444;28;20083;-52
2022/10/26 06:23:24;;;;;;;;;;;8.10;99.90;;;;;;5017444;28;20067;-52
2022/10/26 06:26:19;;;;;;;17.63;10.27;;;8.10;99.90;;;;;;5015041;28;19913;-50
2022/10/26 06:29:06;;;;;;;18.33;10.70;;;8.10;99.90;;;;;;5006285;28;20400;-51
2022/10/26 06:31:32;;;;;;;;;;;8.10;99.90;;;;;;5009506;28;20113;-50
2022/10/26 06:33:59;;;;;;;18.37;10.73;;;8.10;99.90;;;;;;5023975;28;19992;-51
2022/10/26 06:36:26;;;;;;;18.05;11.15;;;8.20;99.90;;;;;;5017229;28;20026;-51
2022/10/26 06:39:12;;;;;;;21.20;12.18;;;8.20;99.90;;;;;;5020851;28;20033;-50
2022/10/26 06:41:38;;;;;;;19.98;12.27;;;8.20;99.90;;;;;;5018086;28;20018;-50
2022/10/26 06:44:04;;;;;;;20.17;12.65;;;8.20;99.90;;;;;;5019252;28;20044;-50
2022/10/26 06:47:06;;;;;;;18.38;11.75;;;8.20;99.90;;;;;;5020736;28;20053;-50
2022/10/26 06:50:00;;;;;;;19.48;11.70;;;8.20;99.90;;;;;;5007221;28;20099;-52
2022/10/26 06:52:38;;;;;;;21.05;11.27;;;8.20;99.90;;;;;;5012841;28;20021;-50
2022/10/26 06:55:04;;;;;;;17.80;9.30;;;8.20;99.90;;;;;;5023166;28;20025;-51
2022/10/26 06:57:36;;;;;;;18.33;12.65;;;8.20;99.90;;;;;;5024286;28;20025;-50
2022/10/26 07:00:23;;;;;;;16.63;11.98;;;8.20;99.90;;;;;;5022050;28;20022;-53
2022/10/26 07:02:50;;;;;;;20.02;11.57;;;8.30;99.90;;;;;;5020308;28;20030;-54
2022/10/26 07:05:15;;;;;;;20.65;11.70;;;8.30;99.90;;;;;;5013321;28;20640;-52
2022/10/26 07:07:43;;;;;;;19.40;12.48;;;8.30;99.90;;;;;;5020949;28;20025;-50
2022/10/26 07:10:10;;;;;;;15.65;11.23;;;8.30;99.90;;;;;;5017433;28;20033;-53
2022/10/26 07:12:36;;;;;;;16.30;11.85;;;8.30;99.90;;;;;;5021573;28;20018;-54
2022/10/26 07:15:03;;;;;;;17.30;12.07;;;8.30;99.90;;;;;;5017576;28;20088;-52
2022/10/26 07:17:29;;;;;;;17.70;11.50;;;8.40;99.90;;;;;;5021633;28;20623;-50
2022/10/26 07:19:55;;;;;;;17.95;11.25;;;8.40;99.90;;;;;;5019767;28;20037;-51
2022/10/26 07:22:21;;;;;;;15.32;11.45;;;8.50;99.90;;;;;;5013296;28;20307;-50
2022/10/26 07:24:49;;;;;;;22.15;11.52;;;8.50;99.90;;;;;;5018704;28;20042;-50
2022/10/26 07:27:15;;;;;;;22.80;11.95;;;8.50;99.90;;;;;;5013137;28;20056;-49
2022/10/26 07:29:41;;;;;;;23.55;12.98;;;8.50;99.90;;;;;;5020531;28;20484;-50
2022/10/26 07:32:07;;;;;;;19.45;12.15;;;8.60;99.90;;;;;;5021575;28;20029;-51
2022/10/26 07:34:33;;;;;;;17.00;11.75;;;8.60;99.90;;;;;;5024692;28;20575;-52
2022/10/26 07:36:59;;;;;;;25.05;12.60;;;8.60;99.90;;;;;;5022561;28;20280;-55
2022/10/26 07:39:25;;;;;;;16.35;10.75;;;8.60;99.90;;;;;;5026652;28;20018;-53
2022/10/26 07:41:51;;;;;;;15.57;11.45;;;8.70;99.90;;;;;;5016152;28;20080;-54
2022/10/26 07:44:16;;;;;;;19.17;12.20;;;8.70;99.90;;;;;;5023751;28;20563;-50
2022/10/26 07:46:42;;;;;;;18.65;11.80;;;8.80;99.90;;;;;;5022243;28;20048;-50
2022/10/26 07:49:08;;;;;;;18.40;12.35;;;8.80;99.90;;;;;;5022853;28;20093;-52
2022/10/26 07:51:33;;;;;;;22.33;12.55;;;8.90;99.90;;;;;;5024028;28;20022;-53
2022/10/26 07:53:59;;;;;;;20.67;11.90;;;8.90;99.90;;;;;;5044086;22;20049;-55
2022/10/26 07:56:25;;;;;;;20.15;11.60;;;9.00;99.90;;;;;;5025619;28;20506;-49
2022/10/26 07:58:52;;;;;;;19.45;11.55;;;9.00;99.90;;;;;;5014021;28;20041;-54
2022/10/26 08:01:17;;;;;;;17.83;12.38;;;9.10;99.90;;;;;;5020186;28;20075;-51
2022/10/26 08:03:43;;;;;;;19.98;12.25;;;9.10;99.90;;;;;;5016241;28;20072;-49
2022/10/26 08:06:09;;;;;;;17.83;12.02;;;9.10;99.90;;;;;;5014034;28;20155;-49
2022/10/26 08:08:35;;;;;;;18.90;11.60;;;9.20;99.90;;;;;;5022671;28;20495;-57
2022/10/26 08:11:01;;;;;;;25.75;11.60;;;9.30;99.90;;;;;;5020816;28;20468;-49
2022/10/26 08:13:26;;;;;;;18.77;11.13;;;9.40;99.90;;;;;;5023572;28;20045;-49
2022/10/26 08:16:00;;;;;;;21.30;12.73;;;9.50;99.90;;;;;;5023159;28;20033;-49
2022/10/26 08:18:26;;;;;;;17.73;11.88;;;9.50;99.90;;;;;;5019962;28;20117;-52
2022/10/26 08:20:53;;;;;;;19.23;12.35;;;9.70;99.90;;;;;;5013384;28;20395;-50
2022/10/26 08:23:18;;;;;;;17.67;12.32;;;9.70;99.90;;;;;;5021034;28;20018;-50
2022/10/26 08:25:44;;;;;;;19.48;11.05;;;9.80;99.90;;;;;;5023076;28;20017;-52
2022/10/26 08:28:09;;;;;;;17.15;10.85;;;9.80;99.90;;;;;;5020584;28;20084;-50
2022/10/26 08:30:35;;;;;;;21.40;12.13;;;10.00;99.90;;;;;;5022365;28;20395;-49
2022/10/26 08:33:05;;;;;;;20.58;11.45;;;10.00;99.90;;;;;;5019028;28;20539;-50
2022/10/26 08:35:32;;;;;;;23.90;11.90;;;10.20;99.90;;;;;;5020778;28;20032;-49
2022/10/26 08:37:58;;;;;;;19.13;11.30;;;10.20;99.90;;;;;;5018311;28;20061;-51
2022/10/26 08:40:28;;;;;;;20.55;12.20;;;10.30;99.90;;;;;;5022552;28;20237;-48
2022/10/26 08:43:03;;;;;;;20.02;11.27;;;10.40;99.90;;;;;;5018231;28;20385;-49
2022/10/26 08:45:31;;;;;;;16.85;11.23;;;10.40;99.90;;;;;;5024006;28;20021;-49
2022/10/26 08:48:04;;;;;;;17.20;11.05;;;10.50;99.90;;;;;;5016040;28;20024;-50
2022/10/26 08:50:38;;;;;;;19.23;11.43;;;10.60;99.90;;;;;;5025174;28;20496;-49
2022/10/26 08:53:15;;;;;;;22.10;11.75;;;10.70;99.90;;;;;;5014800;28;20447;-54
2022/10/26 08:55:46;;;;;;;21.60;12.48;;;10.70;99.90;;;;;;5014910;28;20025;-51
2022/10/26 08:58:21;;;;;;;16.75;11.35;;;10.80;99.90;;;;;;5020173;28;20104;-51
2022/10/26 09:00:48;;;;;;;15.70;10.82;;;10.90;99.90;;;;;;5015829;28;20534;-51
2022/10/26 09:03:15;;;;;;;18.83;10.70;;;10.90;99.90;;;;;;5018092;28;20041;-53
2022/10/26 09:05:55;;;;;;;19.27;11.48;;;11.00;99.90;;;;;;5019080;28;20022;-49
2022/10/26 09:08:31;;;;;;;16.55;10.82;;;11.10;99.90;;;;;;5019053;28;20072;-52
2022/10/26 09:11:19;;;;;;;15.77;9.82;;;11.10;99.90;;;;;;5017765;28;20444;-53
2022/10/26 09:14:16;;;;;;;19.63;10.65;;;11.20;99.90;;;;;;5017793;28;20034;-55
2022/10/26 09:16:51;;;;;;;17.60;11.20;;;11.20;99.90;;;;;;5017337;28;20032;-54
2022/10/26 09:19:48;;;;;;;14.85;8.95;;;11.30;99.90;;;;;;5011945;28;20028;-51
2022/10/26 09:22:24;;;;;;;13.50;9.45;;;11.40;99.90;;;;;;5011167;28;20101;-50
2022/10/26 09:24:55;;;;;;;15.63;10.30;;;11.40;99.90;;;;;;5016722;28;20635;-49
2022/10/26 09:27:28;;;;;;;15.55;9.65;;;11.50;99.90;;;;;;5021468;28;20037;-49
2022/10/26 09:29:57;;;;;;;19.38;8.98;;;11.60;99.90;;;;;;5018470;28;20492;-53
2022/10/26 09:32:37;;;;;;;17.15;9.18;;;11.60;99.90;;;;;;5010630;28;20055;-50
2022/10/26 09:35:16;;;;;;;13.77;8.18;;;11.70;99.90;;;;;;5017087;28;20033;-53
2022/10/26 09:37:48;;;;;;;18.70;10.23;;;11.80;99.90;;;;;;5017654;28;20393;-50
2022/10/26 09:40:24;;;;;;;11.98;8.48;;;11.90;99.90;;;;;;5014742;28;20448;-54
2022/10/26 09:43:02;;;;;;;13.35;7.95;;;11.90;99.90;;;;;;5019779;28;20029;-55
2022/10/26 09:45:37;;;;;;;11.73;7.60;;;12.00;99.90;;;;;;5013726;28;20038;-53
2022/10/26 09:48:11;;;;;;;12.25;8.05;;;12.10;99.90;;;;;;5021073;28;20177;-53
2022/10/26 09:50:39;;;;;;;14.10;7.88;;;12.20;99.90;;;;;;5013423;28;20030;-53
2022/10/26 09:53:05;;;;;;;10.18;6.60;;;12.20;99.90;;;;;;5013605;28;20113;-53
2022/10/26 09:55:33;;;;;;;10.30;5.55;;;12.30;99.90;;;;;;5022695;28;20112;-50
2022/10/26 09:58:02;;;;;;;9.98;6.10;;;12.30;99.90;;;;;;5010952;28;20026;-52
2022/10/26 10:00:28;;;;;;;9.25;6.28;;;12.40;99.90;;;;;;5017561;28;20068;-49
2022/10/26 10:02:56;;;;;;;6.10;4.30;;;12.50;99.90;;;;;;5021712;28;20049;-49
2022/10/26 10:05:33;;;;;;;7.05;4.68;;;12.60;99.90;;;;;;5032565;28;20465;-54
2022/10/26 10:08:09;;;;;;;7.75;4.28;;;12.60;99.90;;;;;;5017679;28;20419;-52
2022/10/26 10:10:35;;;;;;;;;;;12.70;99.90;;;;;;5016354;28;20032;-53
2022/10/26 10:13:15;;;;;;;6.63;4.00;;;12.80;99.90;;;;;;5019102;28;19928;-51
2022/10/26 10:15:54;;;;;;;6.47;3.60;;;12.80;99.90;;;;;;5013899;28;20054;-49
2022/10/26 10:18:21;;;;;;;5.97;3.53;;;12.90;99.90;;;;;;5017982;28;20021;-53
2022/10/26 10:20:54;;;;;;;7.93;3.53;;;13.00;99.90;;;;;;5013350;28;20022;-50
2022/10/26 10:23:47;;;;;;;6.75;3.25;;;13.00;99.90;;;;;;5010930;28;20022;-49
2022/10/26 10:26:13;;;;;;;4.30;3.38;;;13.00;99.90;;;;;;5008698;28;20043;-49
2022/10/26 10:28:41;;;;;;;4.47;3.05;;;13.10;99.90;;;;;;5020358;28;20021;-50
2022/10/26 10:31:26;;;;;;;5.50;3.42;;;13.10;99.90;;;;;;5008774;28;20044;-48
2022/10/26 10:33:52;;;;;;;3.80;2.53;;;13.20;99.90;;;;;;5023891;28;20323;-50
2022/10/26 10:36:20;;;;;;;3.80;2.63;;;13.20;99.90;;;;;;5012256;28;20022;-48
2022/10/26 10:38:48;;;;;;;6.07;2.90;;;13.30;99.90;;;;;;5024081;28;20415;-50
2022/10/26 10:41:35;;;;;;;5.75;2.50;;;13.40;99.90;;;;;;5009759;28;20365;-50
2022/10/26 10:44:28;;;;;;;5.35;3.03;;;13.40;99.90;;;;;;5014278;28;20026;-50
2022/10/26 10:47:17;;;;;;;7.15;2.85;;;13.50;99.90;;;;;;5012081;28;20049;-50
2022/10/26 10:49:51;;;;;;;4.80;3.10;;;13.50;99.90;;;;;;5019630;28;20408;-53
2022/10/26 10:52:43;;;;;;;4.13;2.92;;;13.60;99.90;;;;;;5015717;28;20035;-52
2022/10/26 10:55:21;;;;;;;3.10;2.45;;;13.70;99.90;;;;;;5015423;28;20384;-53
2022/10/26 10:58:07;;;;;;;4.05;2.67;;;13.70;99.90;;;;;;5018830;28;20103;-51
2022/10/26 11:00:36;;;;;;;;;;;13.80;99.90;;;;;;5007012;28;20021;-55
2022/10/26 11:03:24;;;;;;;5.75;2.45;;;13.80;99.90;;;;;;5022342;28;19905;-52
2022/10/26 11:06:08;;;;;;;3.05;2.70;;;13.90;99.90;;;;;;5004842;28;20018;-52
2022/10/26 11:08:44;;;;;;;3.97;3.03;;;14.00;99.90;;;;;;5015998;28;20022;-49
2022/10/26 11:11:24;;;;;;;5.40;3.13;;;14.00;99.90;;;;;;5017309;28;20022;-58
2022/10/26 11:13:56;;;;;;;4.22;2.80;;;14.10;99.90;;;;;;5012363;28;20034;-52
2022/10/26 11:16:37;;;;;;;5.35;2.70;;;14.10;99.90;;;;;;5010019;28;20104;-54
2022/10/26 11:19:28;;;;;;;4.07;2.40;;;14.20;99.90;;;;;;5012324;28;20024;-50
2022/10/26 11:21:55;;;;;;;6.07;2.80;;;14.20;99.90;;;;;;5016694;28;20123;-51
2022/10/26 11:24:23;;;;;;;6.60;2.80;;;14.20;99.90;;;;;;5009487;28;20028;-52
2022/10/26 11:27:03;;;;;;;5.70;2.85;;;14.20;99.90;;;;;;5013169;28;20026;-52
2022/10/26 11:29:49;;;;;;;4.97;3.33;;;14.20;99.90;;;;;;5013369;28;20018;-53
2022/10/26 11:32:36;;;;;;;5.47;2.60;;;14.30;99.90;;;;;;5004860;28;20396;-50
2022/10/26 11:35:18;;;;;;;6.38;2.50;;;14.30;99.90;;;;;;5018602;28;20034;-49
2022/10/26 11:38:16;;;;;;;4.15;2.42;;;14.40;99.90;;;;;;5020246;28;20128;-51
2022/10/26 11:40:55;;;;;;;6.82;3.40;;;14.50;99.90;;;;;;5020099;28;20014;-50
2022/10/26 11:43:28;;;;;;;4.50;2.58;;;14.60;99.90;;;;;;5034415;28;20583;-51
2022/10/26 11:46:26;;;;;;;2.92;2.35;;;14.60;99.90;;;;;;5026235;28;20498;-51
2022/10/26 11:49:10;;;;;;;5.20;2.42;;;14.60;99.90;;;;;;5009887;28;20053;-51
2022/10/26 11:52:02;;;;;;;4.32;2.67;;;14.70;99.90;;;;;;5022106;28;20481;-49
2022/10/26 11:54:57;;;;;;;3.95;2.13;;;14.70;99.90;;;;;;5016325;28;20026;-52
2022/10/26 11:57:24;;;;;;;8.88;2.95;;;14.70;99.90;;;;;;5022025;28;20452;-55
2022/10/26 11:59:58;;;;;;;5.53;2.40;;;14.80;99.90;;;;;;5017929;28;20010;-53
2022/10/26 12:02:25;;;;;;;3.97;2.75;;;14.90;99.90;;;;;;5022601;28;20030;-49
2022/10/26 12:05:17;;;;;;;4.43;3.33;;;14.90;99.90;;;;;;5018251;28;20084;-49
2022/10/26 12:07:56;;;;;;;3.30;2.65;;;14.90;99.90;;;;;;5021506;28;20041;-51
2022/10/26 12:10:26;;;;;;;4.30;2.30;;;15.00;99.90;;;;;;5015781;28;20029;-49
2022/10/26 12:12:58;;;;;;;4.45;2.05;;;15.00;99.90;;;;;;5020518;28;20032;-53
2022/10/26 12:15:40;;;;;;;6.28;3.50;;;15.10;99.90;;;;;;5022509;28;20057;-52
2022/10/26 12:18:14;;;;;;;3.40;2.60;;;15.20;99.90;;;;;;5022139;28;20022;-53
2022/10/26 12:21:02;;;;;;;3.35;2.65;;;15.20;99.90;;;;;;5021578;28;20071;-52
2022/10/26 12:23:32;;;;;;;3.78;2.38;;;15.20;99.90;;;;;;5019757;28;20129;-50
2022/10/26 12:26:36;;;;;;;4.72;3.20;;;15.30;99.90;;;;;;5022083;28;20511;-53
2022/10/26 12:29:02;;;;;;;3.42;2.97;;;15.30;99.90;;;;;;5021424;28;20041;-49
2022/10/26 12:31:36;;;;;;;3.45;2.80;;;15.30;99.90;;;;;;5014543;28;20018;-52
2022/10/26 12:34:04;;;;;;;6.43;3.22;;;15.30;99.90;;;;;;5026196;28;20080;-55
2022/10/26 12:36:49;;;;;;;8.20;2.70;;;15.40;99.90;;;;;;5018789;28;20026;-53
2022/10/26 12:39:32;;;;;;;3.97;3.00;;;15.40;99.90;;;;;;5014514;28;20068;-50
2022/10/26 12:42:28;;;;;;;5.93;2.60;;;15.30;99.90;;;;;;5018452;28;20026;-51
2022/10/26 12:44:53;;;;;;;6.00;2.80;;;15.40;99.90;;;;;;5016463;28;20028;-51
2022/10/26 12:47:28;;;;;;;4.40;2.15;;;15.40;99.90;;;;;;5022347;28;20100;-53
2022/10/26 12:49:57;;;;;;;8.73;2.40;;;15.40;99.90;;;;;;5020839;28;20044;-51
2022/10/26 12:52:29;;;;;;;3.67;2.70;;;15.50;99.90;;;;;;5023031;28;20021;-51
2022/10/26 12:55:22;;;;;;;6.90;2.72;;;15.50;99.90;;;;;;5020449;28;20539;-52
2022/10/26 12:58:04;;;;;;;3.05;2.67;;;15.60;99.90;;;;;;5024165;28;20499;-49
2022/10/26 13:00:32;;;;;;;6.55;2.97;;;15.70;99.90;;;;;;5018593;28;20096;-51
2022/10/26 13:03:25;;;;;;;3.78;2.42;;;15.70;99.90;;;;;;5023846;28;20021;-51
2022/10/26 13:06:16;;;;;;;3.30;2.80;;;15.80;99.90;;;;;;5016172;28;20036;-54
2022/10/26 13:08:51;;;;;;;4.30;2.60;;;15.80;99.90;;;;;;5021918;28;20017;-53
2022/10/26 13:11:33;;;;;;;4.97;3.53;;;15.80;99.90;;;;;;5019053;28;20507;-52